Aviation Digital Data Service (ADDS)

Output produced by METARs form (0629 UTC 19 January 2017)
found at http://www.aviationweather.gov/adds/metars/
 
KCXY 190607Z AUTO 28004KT 10SM BKN026 OVC041 07/02 A3005 RMK AO2 T00670017
KCXY 190556Z AUTO 29004KT 10SM SCT027 OVC041 07/01 A3005 RMK AO2 SLP179 T00670011 10089 20067 50001
KCXY 190528Z AUTO 29007KT 10SM FEW028 OVC041 07/01 A3006 RMK AO2 T00720011
KCXY 190456Z AUTO 26005KT 10SM BKN028 OVC042 07/02 A3006 RMK AO2 SLP180 T00670017 401110039
KCXY 190356Z AUTO 31005KT 10SM SCT029 OVC045 07/01 A3005 RMK AO2 SLP178 T00720011
KCXY 190256Z AUTO 25004KT 10SM OVC029 07/02 A3005 RMK AO2 SLP179 T00720017 50000
KCXY 190228Z AUTO 29003KT 10SM OVC029 08/02 A3006 RMK AO2 T00780017
KCXY 190156Z 00000KT 10SM OVC032 08/02 A3006 RMK AO2 SLP183 T00780017
KCXY 190135Z 30005KT 10SM OVC030 08/02 A3006 RMK AO2 T00780017
KCXY 190056Z 30006KT 10SM OVC029 08/02 A3006 RMK AO2 SLP182 T00830017
KCXY 190034Z 30005KT 10SM BKN029 BKN034 08/02 A3006 RMK AO2 T00830017
KCXY 190017Z 29007KT 10SM BKN031 BKN055 08/02 A3005 RMK AO2 T00830017
KCXY 182356Z 31006KT 10SM OVC029 09/02 A3005 RMK AO2 SLP179 T00890017 10111 20089 51022
KCXY 182256Z 33009KT 10SM OVC033 09/02 A3003 RMK AO2 SLP174 T00940017
KCXY 182156Z 33010KT 10SM OVC034 10/02 A3001 RMK AO2 SLP165 T01000022
KCXY 182056Z 34008KT 10SM OVC034 11/03 A2998 RMK AO2 SLP157 T01060028 53017
KCXY 181956Z 31009KT 10SM OVC037 11/03 A2996 RMK AO2 SLP148 T01060028
KCXY 181856Z 32009KT 10SM OVC036 11/03 A2994 RMK AO2 SLP142 T01110033
KCXY 181756Z 30011G19KT 270V340 10SM SCT031 OVC065 11/04 A2993 RMK AO2 SLP138 60000 T01110039 10111 20044 56009
KCXY 181656Z 28008KT 10SM FEW030 OVC090 10/06 A2993 RMK AO2 SLP139 T01000061
KCXY 181556Z 29005KT 6SM BR OVC070 08/06 A2995 RMK AO2 RAE14 SLP145 P0000 T00780056
KCXY 181516Z 28003KT 5SM BR SCT028 OVC065 06/04 A2996 RMK AO2 RAE14 P0000 T00610044
KCXY 181456Z 28003KT 3SM -RA BR OVC029 06/04 A2996 RMK AO2 RAB51 SLP149 P0000 60000 T00560039 51011
KCXY 181443Z 00000KT 3SM BR SCT005 OVC030 06/04 A2996 RMK AO2 T00560039
KCXY 181416Z 00000KT 2SM BR OVC005 05/04 A2995 RMK AO2 T00500039
KCXY 181356Z 00000KT 1SM R08/P6000FT BR OVC003 05/04 A2994 RMK AO2 SLP141 T00500039
KCXY 181256Z 29005KT 1/2SM R08/5500VP6000FT FG OVC002 04/03 A2993 RMK AO2 SLP138 T00440033
KCXY 181253Z 30005KT 3/4SM R08/5500VP6000FT BR OVC002 04/03 A2993 RMK AO2
KCXY 181231Z 28004KT 1 1/2SM R08/4500VP6000FT BR OVC002 04/03 A2992 RMK AO2 T00440033
KCXY 181214Z 28003KT 3/4SM R08/3500VP6000FT BR OVC002 04/03 A2992 RMK AO2 T00440028
KCXY 181207Z 00000KT 1SM R08/3500V6000FT BR OVC002 04/03 A2992 RMK AO2 T00440033
KCXY 181156Z 00000KT 3/4SM R08/2800V6000FT BR OVC002 04/03 A2992 RMK AO2 SLP135 60000 70017 T00440033 10044 20039 50007
KCXY 181146Z AUTO 29003KT 1/2SM R08/2200V3500FT FG VV002 04/03 A2992 RMK AO2 T00440033
KCXY 181056Z AUTO 00000KT 1/4SM R08/2000V2200FT FG VV002 04/03 A2992 RMK AO2 SLP136 T00390033
KCXY 181047Z AUTO 24003KT 1/4SM R08/2000V2400FT FG VV002 04/03 A2992 RMK AO2 T00390028
KCXY 180956Z AUTO 26004KT 1/2SM R08/2400V2800FT FG VV003 04/03 A2991 RMK AO2 RAB29E49 SLP132 P0000 T00390028
KCXY 180926Z AUTO 00000KT 1/2SM R08/2800V4000FT FG VV003 04/02 A2991 RMK AO2 T00390022
KCXY 180918Z AUTO 00000KT 3/4SM R08/4000VP6000FT BR OVC002 04/03 A2990 RMK AO2 T00390028
KCXY 180906Z AUTO 00000KT 1SM R08/5500VP6000FT BR OVC003 04/03 A2990 RMK AO2 T00390028
KCXY 180856Z AUTO 14003KT 1 1/2SM BR OVC003 04/03 A2990 RMK AO2 SLP128 T00390028 58001
KCXY 180835Z AUTO 13003KT 2 1/2SM BR OVC004 04/03 A2991 RMK AO2 T00390028
KCXY 180756Z AUTO 07003KT 3SM BR OVC004 04/03 A2991 RMK AO2 SLP131 T00440028
KCXY 180656Z AUTO 10003KT 3SM BR OVC004 04/02 A2990 RMK AO2 SLP128 T00390022
KCXY 180556Z AUTO 00000KT 3SM BR OVC004 04/03 A2990 RMK AO2 SLP129 60004 T00390028 10050 20039 58010
KCXY 180456Z AUTO 13003KT 4SM BR OVC004 04/03 A2991 RMK AO2 RAE17 SLP131 P0000 T00390028 400560022
KCXY 180442Z AUTO 13003KT 2 1/2SM BR OVC004 04/03 A2991 RMK AO2 RAE17 P0000 T00390028
KCXY 180419Z AUTO 11003KT 3SM BR OVC004 04/03 A2993 RMK AO2 RAE17 P0000 T00390028
KCXY 180356Z AUTO 08003KT 2SM -RA BR OVC003 04/03 A2993 RMK AO2 SLP140 P0004 T00390028
KCXY 180347Z AUTO 12004KT 2SM -RA BR OVC003 04/03 A2993 RMK AO2 P0003 T00390028
KCXY 180341Z AUTO 12004KT 1 1/2SM -RA BR OVC002 04/03 A2994 RMK AO2 P0003 T00390028
KCXY 180314Z AUTO 00000KT 1SM R08/4500V5500FT -RA BR OVC002 04/03 A2994 RMK AO2 P0001 T00440033
KCXY 180256Z AUTO 08004KT 3/4SM R08/4000V6000FT -RA BR OVC002 04/03 A2993 RMK AO2 RAB52 SLP141 P0000 60000 T00440033 58015
KCXY 180248Z AUTO 08004KT 1SM R08/5500VP6000FT BR OVC002 04/03 A2995 RMK AO2 T00440028
KCXY 180220Z AUTO 05003KT 1 1/4SM BR OVC003 04/03 A2995 RMK AO2 T00440033
KCXY 180207Z AUTO 08004KT 1 1/2SM BR OVC003 04/03 A2995 RMK AO2 T00440033
KCXY 180156Z 08004KT 2SM BR OVC003 04/03 A2995 RMK AO2 SLP147 T00440033
KCXY 180056Z 04003KT 2 1/2SM BR OVC004 05/03 A2997 RMK AO2 SLP153 T00500033
KCXY 180002Z 09003KT 2 1/2SM BR OVC004 05/04 A2997 RMK AO2 T00500039
KCXY 172356Z 10003KT 3SM BR OVC005 05/04 A2998 RMK AO2 RAE45 CIG 003V008 SLP156 P0001 60013 T00500039 10056 20044 58007
KCXY 172315Z 09005KT 3SM -RA BR OVC006 05/04 A2998 RMK AO2 P0001 T00500039
KCXY 172305Z 10004KT 2 1/2SM -RA BR OVC006 05/04 A2999 RMK AO2 P0001 T00500039
KCXY 172256Z 11004KT 3SM -RA BR OVC006 05/04 A2999 RMK AO2 SLP159 P0003 T00500039
KCXY 172236Z 13006KT 3SM -RA BR OVC006 05/04 A2998 RMK AO2 P0002 T00500039
KCXY 172156Z 00000KT 2SM -RA BR OVC007 05/03 A3000 RMK AO2 RAE11B33 SLP162 P0004 T00500033
KCXY 172144Z 10003KT 1 1/2SM RA BR OVC007 05/03 A3000 RMK AO2 RAE11B33 P0003 T00500033
KCXY 172107Z 11006KT 2 1/2SM -RA BR OVC009 05/03 A3000 RMK AO2 P0001 T00500033
KCXY 172056Z 11005KT 1 3/4SM RA BR OVC009 05/03 A3000 RMK AO2 RAB03 SLP163 P0005 60005 T00500033 56022
KCXY 172035Z 12008KT 1 3/4SM +RA BR OVC007 05/03 A2999 RMK AO2 RAB03 P0000 T00500028
KCXY 171956Z 10007KT 4SM HZ OVC008 06/03 A3000 RMK AO2 SLP163 T00560028
KCXY 171856Z 11006KT 4SM HZ OVC008 05/02 A3003 RMK AO2 RAB14E31 SLP173 P0000 T00500022